Time;durP1;ratioP1;P1;durP2;ratioP2;P2;SDS_P1;SDS_P2;PMS_P1;PMS_P2;Temp;Humidity;BMP_temperature;BMP_pressure;BME280_temperature;BME280_humidity;BME280_pressure;Samples;Min_cycle;Max_cycle;Signal;HPM_P1;HPM_P2
2023/08/05 00:02:25;;;;;;;1.07;0.97;;;;;;;;;;5012210;28;20208;-82
2023/08/05 00:04:54;;;;;;;1.80;1.70;;;;;;;;;;5012000;28;20216;-82
2023/08/05 00:07:24;;;;;;;0.70;0.70;;;;;;;;;;5011388;28;20238;-82
2023/08/05 00:09:52;;;;;;;0.70;0.70;;;;;;;;;;5011692;28;20228;-83
2023/08/05 00:12:21;;;;;;;0.70;0.70;;;;;;;;;;5012154;28;20433;-84
2023/08/05 00:14:49;;;;;;;0.40;0.40;;;;;;;;;;5011680;28;20207;-84
2023/08/05 00:17:18;;;;;;;0.50;0.50;;;;;;;;;;5011292;28;20211;-83
2023/08/05 00:19:46;;;;;;;1.00;1.00;;;;;;;;;;5011717;28;20211;-83
2023/08/05 00:22:15;;;;;;;0.40;0.40;;;;;;;;;;5011580;28;20206;-83
2023/08/05 00:24:45;;;;;;;0.60;0.60;;;;;;;;;;5011295;28;20206;-83
2023/08/05 00:27:13;;;;;;;0.30;0.30;;;;;;;;;;5011217;28;20208;-84
2023/08/05 00:29:42;;;;;;;2.10;2.00;;;;;;;;;;5011823;28;20212;-83
2023/08/05 00:32:10;;;;;;;0.80;0.80;;;;;;;;;;5012011;28;20211;-84
2023/08/05 00:34:38;;;;;;;0.40;0.40;;;;;;;;;;5011512;28;20214;-83
2023/08/05 00:37:07;;;;;;;0.47;0.47;;;;;;;;;;5011792;28;20211;-84
2023/08/05 00:39:36;;;;;;;7.63;0.97;;;;;;;;;;5011205;28;20323;-83
2023/08/05 00:42:06;;;;;;;1.00;1.00;;;;;;;;;;5011199;28;20200;-83
2023/08/05 00:44:34;;;;;;;1.73;1.00;;;;;;;;;;5010984;28;20203;-83
2023/08/05 00:47:03;;;;;;;0.57;0.57;;;;;;;;;;5011585;28;20216;-83
2023/08/05 00:49:31;;;;;;;1.40;1.20;;;;;;;;;;5011471;28;20203;-83
2023/08/05 00:52:00;;;;;;;0.87;0.87;;;;;;;;;;5010781;28;20206;-84
2023/08/05 00:54:28;;;;;;;0.40;0.40;;;;;;;;;;5011158;28;20204;-83
2023/08/05 00:56:57;;;;;;;1.33;1.33;;;;;;;;;;5011687;28;20203;-83
2023/08/05 00:59:27;;;;;;;3.87;3.23;;;;;;;;;;5011335;28;20220;-83
2023/08/05 01:01:55;;;;;;;4.43;2.90;;;;;;;;;;5011459;28;20238;-84
2023/08/05 01:04:24;;;;;;;3.50;3.20;;;;;;;;;;5014628;28;20270;-84
2023/08/05 01:06:52;;;;;;;6.13;3.67;;;;;;;;;;5015067;28;20203;-84
2023/08/05 01:09:21;;;;;;;5.10;3.80;;;;;;;;;;5014368;28;20231;-84
2023/08/05 01:11:50;;;;;;;6.60;4.37;;;;;;;;;;5014359;28;20218;-84
2023/08/05 01:14:18;;;;;;;6.03;2.97;;;;;;;;;;5014255;28;20195;-84
2023/08/05 01:16:49;;;;;;;3.27;2.97;;;;;;;;;;5014800;28;20199;-84
2023/08/05 01:19:20;;;;;;;2.40;2.20;;;;;;;;;;5014166;28;20230;-84
2023/08/05 01:21:53;;;;;;;2.43;2.23;;;;;;;;;;5014598;28;20250;-84
2023/08/05 01:24:25;;;;;;;2.23;0.80;;;;;;;;;;5014661;28;20215;-84
2023/08/05 01:26:56;;;;;;;0.43;0.43;;;;;;;;;;5014447;28;20258;-84
2023/08/05 01:29:25;;;;;;;0.90;0.90;;;;;;;;;;5014317;28;20202;-84
2023/08/05 01:31:55;;;;;;;0.40;0.40;;;;;;;;;;5014794;28;20213;-84
2023/08/05 01:34:24;;;;;;;7.33;4.83;;;;;;;;;;5014041;28;20211;-83
2023/08/05 01:36:52;;;;;;;5.37;3.93;;;;;;;;;;5014225;28;20207;-83
2023/08/05 01:39:20;;;;;;;6.33;4.90;;;;;;;;;;5014458;28;20228;-84
2023/08/05 01:41:49;;;;;;;5.60;4.73;;;;;;;;;;5014402;28;20200;-84
2023/08/05 01:44:19;;;;;;;4.03;2.43;;;;;;;;;;5013469;28;20202;-84
2023/08/05 01:46:47;;;;;;;3.87;2.90;;;;;;;;;;5014041;28;20264;-84
2023/08/05 01:49:16;;;;;;;5.30;4.73;;;;;;;;;;5014096;28;20203;-84
2023/08/05 01:51:45;;;;;;;6.93;5.30;;;;;;;;;;5014055;28;20207;-83
2023/08/05 01:54:13;;;;;;;5.53;4.10;;;;;;;;;;5012745;28;20243;-84
2023/08/05 01:56:42;;;;;;;4.87;4.03;;;;;;;;;;5013896;28;20212;-84
2023/08/05 01:59:10;;;;;;;6.33;3.60;;;;;;;;;;5013661;28;20224;-84
2023/08/05 02:01:44;;;;;;;6.30;3.97;;;;;;;;;;5013879;28;20233;-84
2023/08/05 02:04:12;;;;;;;4.03;3.00;;;;;;;;;;5013025;28;20225;-84
2023/08/05 02:06:41;;;;;;;5.33;3.67;;;;;;;;;;5013485;28;20259;-84
2023/08/05 02:09:10;;;;;;;8.37;4.20;;;;;;;;;;5013428;28;20238;-84
2023/08/05 02:11:38;;;;;;;8.47;4.33;;;;;;;;;;5013086;28;20210;-83
2023/08/05 02:14:07;;;;;;;5.73;3.73;;;;;;;;;;5013156;28;20207;-83
2023/08/05 02:16:36;;;;;;;7.73;2.17;;;;;;;;;;5013743;28;20210;-83
2023/08/05 02:19:05;;;;;;;6.47;4.53;;;;;;;;;;5013545;28;20203;-83
2023/08/05 02:21:36;;;;;;;4.10;3.20;;;;;;;;;;5012904;28;20235;-83
2023/08/05 02:24:09;;;;;;;5.30;4.10;;;;;;;;;;5013350;28;20299;-83
2023/08/05 02:26:38;;;;;;;4.07;3.20;;;;;;;;;;5013523;28;20207;-83
2023/08/05 02:29:06;;;;;;;5.57;3.63;;;;;;;;;;5013110;28;20257;-83
2023/08/05 02:31:35;;;;;;;5.07;4.40;;;;;;;;;;5013279;28;20225;-83
2023/08/05 02:34:03;;;;;;;1.23;1.13;;;;;;;;;;5013340;28;20198;-84
2023/08/05 02:36:33;;;;;;;3.67;3.07;;;;;;;;;;5012852;28;20206;-84
2023/08/05 02:39:02;;;;;;;4.90;4.40;;;;;;;;;;5013621;28;20309;-81
2023/08/05 02:41:31;;;;;;;2.40;1.90;;;;;;;;;;5012653;28;20239;-82
2023/08/05 02:43:59;;;;;;;9.13;4.17;;;;;;;;;;5013086;28;20203;-82
2023/08/05 02:46:28;;;;;;;9.13;4.63;;;;;;;;;;5012931;28;20217;-81
2023/08/05 02:48:56;;;;;;;6.27;4.17;;;;;;;;;;5013004;28;20199;-82
2023/08/05 02:51:25;;;;;;;6.30;3.07;;;;;;;;;;5013085;28;20202;-82
2023/08/05 02:53:55;;;;;;;3.43;2.10;;;;;;;;;;5013218;28;20207;-81
2023/08/05 02:56:23;;;;;;;1.40;1.00;;;;;;;;;;5012775;28;20210;-82
2023/08/05 02:58:51;;;;;;;1.87;1.77;;;;;;;;;;5012795;28;20203;-83
2023/08/05 03:01:20;;;;;;;2.93;2.77;;;;;;;;;;5012637;28;20250;-83
2023/08/05 03:03:49;;;;;;;5.20;3.50;;;;;;;;;;5012476;28;20223;-84
2023/08/05 03:06:17;;;;;;;4.03;3.10;;;;;;;;;;5012407;28;20207;-83
2023/08/05 03:08:46;;;;;;;7.63;5.90;;;;;;;;;;5012266;28;20197;-84
2023/08/05 03:11:16;;;;;;;2.33;1.70;;;;;;;;;;5012391;28;20218;-84
2023/08/05 03:13:44;;;;;;;7.10;4.23;;;;;;;;;;5011975;28;20216;-83
2023/08/05 03:16:14;;;;;;;6.40;5.50;;;;;;;;;;5012359;28;20267;-83
2023/08/05 03:18:42;;;;;;;9.20;4.67;;;;;;;;;;5012653;28;20209;-83
2023/08/05 03:21:11;;;;;;;9.67;4.53;;;;;;;;;;5011822;28;20290;-83
2023/08/05 03:23:39;;;;;;;6.70;5.03;;;;;;;;;;5011731;28;20203;-84
2023/08/05 03:26:08;;;;;;;6.77;4.03;;;;;;;;;;5012255;28;20214;-84
2023/08/05 03:28:39;;;;;;;7.87;5.40;;;;;;;;;;5012317;28;20203;-84
2023/08/05 03:31:08;;;;;;;10.57;5.93;;;;;;;;;;5011980;28;20203;-84
2023/08/05 03:33:36;;;;;;;8.30;5.17;;;;;;;;;;5011952;28;20211;-84
2023/08/05 03:36:05;;;;;;;10.23;6.43;;;;;;;;;;5012253;28;20212;-83
2023/08/05 03:38:33;;;;;;;8.23;4.90;;;;;;;;;;5012204;28;20237;-83
2023/08/05 03:41:03;;;;;;;9.67;5.23;;;;;;;;;;5011600;28;20232;-84
2023/08/05 03:43:32;;;;;;;2.93;2.17;;;;;;;;;;5012034;28;20253;-83
2023/08/05 03:46:02;;;;;;;7.30;4.83;;;;;;;;;;5012083;28;20404;-84
2023/08/05 03:48:30;;;;;;;4.73;3.50;;;;;;;;;;5011899;28;20241;-83
2023/08/05 03:50:59;;;;;;;5.63;5.03;;;;;;;;;;5011841;28;20207;-84
2023/08/05 03:53:27;;;;;;;5.93;3.77;;;;;;;;;;5011613;28;20198;-84
2023/08/05 03:55:56;;;;;;;5.10;3.83;;;;;;;;;;5011860;28;20302;-84
2023/08/05 03:58:26;;;;;;;6.50;5.33;;;;;;;;;;5011273;28;20206;-84
2023/08/05 04:00:54;;;;;;;5.53;4.63;;;;;;;;;;5011615;28;20215;-84
2023/08/05 04:03:24;;;;;;;3.20;2.17;;;;;;;;;;5011520;28;20227;-84
2023/08/05 04:05:54;;;;;;;6.10;3.00;;;;;;;;;;5011609;28;20210;-84
2023/08/05 04:08:23;;;;;;;8.47;5.97;;;;;;;;;;5011467;28;20264;-83
2023/08/05 04:10:52;;;;;;;5.33;4.83;;;;;;;;;;5012038;28;20227;-83
2023/08/05 04:13:24;;;;;;;5.97;4.67;;;;;;;;;;5011593;28;20206;-84
2023/08/05 04:15:53;;;;;;;9.17;6.20;;;;;;;;;;5011160;28;20202;-84
2023/08/05 04:18:22;;;;;;;7.77;5.27;;;;;;;;;;5011594;28;20209;-83
2023/08/05 04:20:52;;;;;;;8.53;6.37;;;;;;;;;;5011685;28;20222;-82
2023/08/05 04:23:23;;;;;;;7.83;5.73;;;;;;;;;;5012153;28;20240;-82
2023/08/05 04:25:52;;;;;;;6.07;3.20;;;;;;;;;;5012494;28;20269;-82
2023/08/05 04:28:21;;;;;;;11.30;6.70;;;;;;;;;;5011923;28;20234;-81
2023/08/05 04:30:49;;;;;;;6.97;5.43;;;;;;;;;;5012078;28;20189;-82
2023/08/05 04:33:18;;;;;;;7.67;5.60;;;;;;;;;;5011117;28;20195;-81
2023/08/05 04:35:47;;;;;;;8.53;5.43;;;;;;;;;;5012330;28;20207;-81
2023/08/05 04:38:17;;;;;;;5.70;2.07;;;;;;;;;;5015399;28;20218;-81
2023/08/05 04:40:45;;;;;;;3.67;1.10;;;;;;;;;;5014319;28;20218;-81
2023/08/05 04:43:16;;;;;;;6.17;4.00;;;;;;;;;;5015186;28;20195;-81
2023/08/05 04:45:45;;;;;;;4.73;4.10;;;;;;;;;;5015737;28;20285;-82
2023/08/05 04:48:13;;;;;;;10.90;4.00;;;;;;;;;;5015578;28;20233;-82
2023/08/05 04:50:42;;;;;;;8.83;5.70;;;;;;;;;;5015232;28;20217;-82
2023/08/05 04:53:10;;;;;;;6.90;4.93;;;;;;;;;;5015361;28;20215;-81
2023/08/05 04:55:40;;;;;;;6.57;5.13;;;;;;;;;;5015503;28;20207;-81
2023/08/05 04:58:10;;;;;;;6.07;4.40;;;;;;;;;;5015514;28;20203;-81
2023/08/05 05:00:39;;;;;;;11.40;4.77;;;;;;;;;;5014860;28;20193;-82
2023/08/05 05:03:08;;;;;;;7.83;5.40;;;;;;;;;;5015060;28;20222;-82
2023/08/05 05:05:37;;;;;;;10.53;5.60;;;;;;;;;;5015387;28;20213;-82
2023/08/05 05:08:05;;;;;;;8.70;6.30;;;;;;;;;;5015230;28;20268;-82
2023/08/05 05:10:34;;;;;;;9.87;5.57;;;;;;;;;;5014543;28;20246;-82
2023/08/05 05:13:04;;;;;;;8.23;5.40;;;;;;;;;;5015506;28;20253;-81
2023/08/05 05:15:32;;;;;;;6.70;5.50;;;;;;;;;;5014914;28;20211;-82
2023/08/05 05:18:01;;;;;;;6.63;5.03;;;;;;;;;;5014764;28;20215;-82
2023/08/05 05:20:29;;;;;;;5.70;3.87;;;;;;;;;;5015075;28;20286;-82
2023/08/05 05:22:58;;;;;;;8.27;5.27;;;;;;;;;;5014758;28;20241;-82
2023/08/05 05:25:27;;;;;;;3.23;2.33;;;;;;;;;;5014265;28;20191;-82
2023/08/05 05:27:56;;;;;;;11.63;4.10;;;;;;;;;;5014676;28;20210;-82
2023/08/05 05:30:25;;;;;;;12.33;4.03;;;;;;;;;;5015183;28;20211;-82
2023/08/05 05:32:54;;;;;;;11.03;6.27;;;;;;;;;;5014502;28;20213;-82
2023/08/05 05:35:24;;;;;;;10.10;5.87;;;;;;;;;;5013692;28;20190;-82
2023/08/05 05:37:53;;;;;;;9.87;7.10;;;;;;;;;;5014494;28;20222;-82
2023/08/05 05:40:21;;;;;;;9.83;6.30;;;;;;;;;;5014520;28;20211;-82
2023/08/05 05:42:50;;;;;;;7.93;5.93;;;;;;;;;;5013986;28;20230;-82
2023/08/05 05:45:21;;;;;;;8.27;4.33;;;;;;;;;;5013885;28;20206;-82
2023/08/05 05:47:50;;;;;;;6.67;5.97;;;;;;;;;;5013642;28;20199;-82
2023/08/05 05:50:19;;;;;;;6.40;4.90;;;;;;;;;;5014364;28;20211;-83
2023/08/05 05:52:48;;;;;;;8.67;7.43;;;;;;;;;;5013185;28;20234;-83
2023/08/05 05:55:17;;;;;;;7.03;4.20;;;;;;;;;;5013992;28;20254;-84
2023/08/05 05:57:45;;;;;;;8.67;4.77;;;;;;;;;;5013797;28;20269;-83
2023/08/05 06:00:15;;;;;;;10.17;7.03;;;;;;;;;;5013569;28;20210;-84
2023/08/05 06:02:44;;;;;;;10.50;8.20;;;;;;;;;;5012989;28;20238;-83
2023/08/05 06:05:14;;;;;;;10.20;9.00;;;;;;;;;;5013493;28;20204;-83
2023/08/05 06:07:42;;;;;;;10.07;6.97;;;;;;;;;;5013795;28;20211;-82
2023/08/05 06:10:11;;;;;;;10.83;6.87;;;;;;;;;;5013313;28;20242;-82
2023/08/05 06:12:39;;;;;;;8.67;7.13;;;;;;;;;;5014074;28;20399;-82
2023/08/05 06:15:08;;;;;;;11.23;8.00;;;;;;;;;;5013703;28;20284;-82
2023/08/05 06:17:36;;;;;;;11.30;6.60;;;;;;;;;;5013523;28;20206;-82
2023/08/05 06:20:06;;;;;;;10.50;6.63;;;;;;;;;;5013276;28;20188;-82
2023/08/05 06:22:35;;;;;;;10.17;7.63;;;;;;;;;;5013641;28;20226;-82
2023/08/05 06:25:04;;;;;;;16.33;8.87;;;;;;;;;;5013514;28;20199;-82
2023/08/05 06:27:33;;;;;;;10.53;8.00;;;;;;;;;;5013358;28;20204;-83
2023/08/05 06:30:01;;;;;;;19.00;9.20;;;;;;;;;;5013430;28;20216;-84
2023/08/05 06:32:29;;;;;;;6.83;5.40;;;;;;;;;;5013277;28;20195;-84
2023/08/05 06:34:58;;;;;;;8.07;6.07;;;;;;;;;;5012717;28;20212;-84
2023/08/05 06:37:27;;;;;;;9.43;7.53;;;;;;;;;;5012763;28;20204;-83
2023/08/05 06:39:56;;;;;;;11.90;9.90;;;;;;;;;;5013190;28;20213;-84
2023/08/05 06:42:25;;;;;;;12.70;9.33;;;;;;;;;;5012880;28;20219;-84
2023/08/05 06:44:54;;;;;;;15.10;9.37;;;;;;;;;;5012940;28;20212;-84
2023/08/05 06:47:23;;;;;;;15.50;9.67;;;;;;;;;;5012630;28;20242;-84
2023/08/05 06:49:51;;;;;;;5.50;3.83;;;;;;;;;;5013138;28;20433;-83
2023/08/05 06:52:19;;;;;;;11.47;9.23;;;;;;;;;;5013343;28;20199;-82
2023/08/05 06:54:48;;;;;;;11.30;8.33;;;;;;;;;;5012868;28;20214;-82
2023/08/05 06:57:18;;;;;;;15.00;10.53;;;;;;;;;;5013462;28;20196;-81
2023/08/05 06:59:47;;;;;;;11.43;9.57;;;;;;;;;;5012428;28;20211;-81
2023/08/05 07:02:16;;;;;;;11.97;8.90;;;;;;;;;;5012477;28;20216;-81
2023/08/05 07:04:44;;;;;;;14.27;9.57;;;;;;;;;;5012623;28;20313;-81
2023/08/05 07:07:12;;;;;;;8.33;5.33;;;;;;;;;;5013216;28;20273;-82
2023/08/05 07:09:41;;;;;;;14.53;12.03;;;;;;;;;;5012928;28;20263;-82
2023/08/05 07:12:10;;;;;;;11.87;9.33;;;;;;;;;;5012483;28;20315;-82
2023/08/05 07:14:44;;;;;;;10.87;8.43;;;;;;;;;;5013219;28;20211;-82
2023/08/05 07:17:13;;;;;;;9.73;8.73;;;;;;;;;;5013015;28;20208;-82
2023/08/05 07:19:42;;;;;;;14.40;12.23;;;;;;;;;;5013012;28;20214;-82
2023/08/05 07:22:10;;;;;;;14.60;8.60;;;;;;;;;;5012739;28;20270;-82
2023/08/05 07:24:39;;;;;;;12.80;9.83;;;;;;;;;;5012449;28;20204;-82
2023/08/05 07:27:07;;;;;;;8.77;5.80;;;;;;;;;;5012801;28;20203;-81
2023/08/05 07:29:37;;;;;;;11.13;8.60;;;;;;;;;;5012236;28;20216;-82
2023/08/05 07:32:08;;;;;;;10.57;7.60;;;;;;;;;;5012209;28;20262;-82
2023/08/05 07:34:37;;;;;;;11.57;8.63;;;;;;;;;;5012501;28;20205;-82
2023/08/05 07:37:06;;;;;;;13.47;10.07;;;;;;;;;;5012246;28;20207;-82
2023/08/05 07:39:35;;;;;;;15.00;12.07;;;;;;;;;;5012269;28;20198;-82
2023/08/05 07:42:05;;;;;;;12.17;9.93;;;;;;;;;;5012528;28;20208;-82
2023/08/05 07:44:34;;;;;;;9.90;8.87;;;;;;;;;;5012705;28;20211;-83
2023/08/05 07:47:02;;;;;;;12.57;11.27;;;;;;;;;;5012173;28;20230;-82
2023/08/05 07:49:34;;;;;;;14.70;9.03;;;;;;;;;;5012314;28;20200;-82
2023/08/05 07:52:04;;;;;;;13.20;9.30;;;;;;;;;;5012726;28;20210;-82
2023/08/05 07:54:32;;;;;;;12.20;11.00;;;;;;;;;;5012013;28;20294;-82
2023/08/05 07:57:01;;;;;;;11.13;10.03;;;;;;;;;;5012048;28;20205;-82
2023/08/05 07:59:30;;;;;;;10.60;7.40;;;;;;;;;;5012405;28;20225;-82
2023/08/05 08:01:59;;;;;;;6.57;5.30;;;;;;;;;;5012505;28;20230;-82
2023/08/05 08:04:29;;;;;;;11.87;10.70;;;;;;;;;;5011524;28;20215;-82
2023/08/05 08:06:59;;;;;;;11.03;9.97;;;;;;;;;;5011802;28;20195;-82
2023/08/05 08:09:28;;;;;;;9.77;8.77;;;;;;;;;;5011963;28;20266;-82
2023/08/05 08:11:56;;;;;;;11.13;9.97;;;;;;;;;;5013910;28;20218;-82
2023/08/05 08:14:25;;;;;;;10.27;7.90;;;;;;;;;;5015770;28;20211;-82
2023/08/05 08:16:53;;;;;;;9.23;8.43;;;;;;;;;;5015889;28;20192;-82
2023/08/05 08:19:22;;;;;;;14.30;10.07;;;;;;;;;;5015773;28;20196;-82
2023/08/05 08:21:51;;;;;;;8.87;7.90;;;;;;;;;;5015873;28;20204;-82
2023/08/05 08:24:21;;;;;;;10.80;8.80;;;;;;;;;;5015600;28;20277;-82
2023/08/05 08:26:51;;;;;;;11.17;10.07;;;;;;;;;;5015847;28;20218;-83
2023/08/05 08:29:20;;;;;;;10.53;9.53;;;;;;;;;;5015655;28;20208;-82
2023/08/05 08:31:48;;;;;;;11.13;9.67;;;;;;;;;;5015458;28;20199;-83
2023/08/05 08:34:17;;;;;;;8.43;7.50;;;;;;;;;;5015669;28;20196;-82
2023/08/05 08:36:46;;;;;;;12.33;8.90;;;;;;;;;;5015663;28;20225;-82
2023/08/05 08:39:14;;;;;;;10.57;8.97;;;;;;;;;;5015202;28;20216;-82
2023/08/05 08:41:45;;;;;;;5.90;5.40;;;;;;;;;;5014910;28;20323;-82
2023/08/05 08:44:15;;;;;;;5.87;5.27;;;;;;;;;;5015454;28;20242;-82
2023/08/05 08:46:44;;;;;;;6.90;6.27;;;;;;;;;;5015750;28;20199;-82
2023/08/05 08:49:15;;;;;;;6.57;5.83;;;;;;;;;;5015284;28;20199;-83
2023/08/05 08:51:48;;;;;;;7.23;5.20;;;;;;;;;;5015720;28;20208;-82
2023/08/05 08:54:19;;;;;;;3.53;3.13;;;;;;;;;;5015581;28;20197;-82
2023/08/05 08:56:49;;;;;;;5.53;5.03;;;;;;;;;;5015090;28;20200;-82
2023/08/05 08:59:17;;;;;;;4.13;3.47;;;;;;;;;;5015094;28;20214;-82
2023/08/05 09:01:47;;;;;;;7.47;4.33;;;;;;;;;;5014924;28;20200;-82
2023/08/05 09:04:17;;;;;;;3.57;2.60;;;;;;;;;;5014589;28;20252;-84
2023/08/05 09:06:48;;;;;;;4.97;3.97;;;;;;;;;;5014116;28;20391;-85
2023/08/05 09:09:16;;;;;;;7.20;4.90;;;;;;;;;;5014402;28;20187;-84
2023/08/05 09:11:45;;;;;;;4.13;2.97;;;;;;;;;;5014581;28;20208;-85
2023/08/05 09:14:17;;;;;;;2.93;2.70;;;;;;;;;;5014370;28;20205;-85
2023/08/05 09:16:57;;;;;;;4.97;4.47;;;;;;;;;;5014512;28;20220;-84
2023/08/05 09:19:26;;;;;;;7.17;4.90;;;;;;;;;;5014963;28;20211;-85
2023/08/05 09:21:55;;;;;;;5.27;4.60;;;;;;;;;;5014437;28;20204;-85
2023/08/05 09:24:23;;;;;;;4.13;3.70;;;;;;;;;;5012873;28;20240;-84
2023/08/05 09:26:56;;;;;;;6.80;5.00;;;;;;;;;;5014344;28;20209;-83
2023/08/05 09:29:27;;;;;;;6.57;5.97;;;;;;;;;;5014457;28;20195;-82
2023/08/05 09:31:56;;;;;;;5.97;5.47;;;;;;;;;;5014387;28;20411;-82
2023/08/05 09:34:32;;;;;;;5.40;4.90;;;;;;;;;;5014255;28;20202;-83
2023/08/05 09:37:01;;;;;;;8.07;7.17;;;;;;;;;;5014542;28;20255;-82
2023/08/05 09:39:44;;;;;;;7.50;5.20;;;;;;;;;;5014627;28;20219;-83
2023/08/05 09:42:21;;;;;;;6.67;5.97;;;;;;;;;;5014143;28;20200;-82
2023/08/05 09:44:52;;;;;;;7.27;5.57;;;;;;;;;;5014369;28;20215;-82
2023/08/05 09:47:23;;;;;;;6.77;5.10;;;;;;;;;;5014576;28;20214;-85
2023/08/05 09:49:52;;;;;;;14.93;5.47;;;;;;;;;;5014353;28;20203;-85
2023/08/05 09:52:23;;;;;;;4.13;2.83;;;;;;;;;;5013682;28;20210;-85
2023/08/05 09:54:56;;;;;;;8.67;6.30;;;;;;;;;;5013867;28;20199;-85
2023/08/05 09:57:25;;;;;;;8.20;6.00;;;;;;;;;;5013821;28;20226;-81
2023/08/05 09:59:59;;;;;;;7.57;6.43;;;;;;;;;;5013838;28;20258;-80
2023/08/05 10:02:30;;;;;;;7.73;7.00;;;;;;;;;;5014663;28;20537;-80
2023/08/05 10:04:59;;;;;;;8.60;6.47;;;;;;;;;;5014022;28;20248;-80
2023/08/05 10:07:28;;;;;;;5.17;3.93;;;;;;;;;;5014344;28;20213;-80
2023/08/05 10:09:58;;;;;;;8.80;7.03;;;;;;;;;;5013616;28;20240;-81
2023/08/05 10:12:27;;;;;;;7.27;5.03;;;;;;;;;;5013974;28;20239;-81
2023/08/05 10:14:57;;;;;;;5.63;5.13;;;;;;;;;;5013922;28;20191;-80
2023/08/05 10:17:26;;;;;;;6.53;5.93;;;;;;;;;;5013395;28;20197;-82
2023/08/05 10:19:54;;;;;;;8.47;6.37;;;;;;;;;;5013654;28;20209;-82
2023/08/05 10:22:24;;;;;;;6.47;5.87;;;;;;;;;;5013689;28;20275;-82
2023/08/05 10:24:56;;;;;;;5.70;4.47;;;;;;;;;;5013412;28;20230;-82
2023/08/05 10:27:38;;;;;;;5.70;4.60;;;;;;;;;;5013447;28;20205;-82
2023/08/05 10:30:09;;;;;;;4.90;4.40;;;;;;;;;;5013552;28;20204;-82
2023/08/05 10:32:50;;;;;;;5.43;4.93;;;;;;;;;;5013539;28;20235;-82
2023/08/05 10:35:28;;;;;;;7.13;4.97;;;;;;;;;;5012640;28;20262;-82
2023/08/05 10:38:21;;;;;;;5.17;4.63;;;;;;;;;;5013481;28;20202;-82
2023/08/05 10:40:51;;;;;;;4.20;3.67;;;;;;;;;;4999597;28;20208;-82
2023/08/05 10:43:36;;;;;;;6.27;4.87;;;;;;;;;;5012927;28;20211;-83
2023/08/05 10:46:13;;;;;;;4.20;3.80;;;;;;;;;;5013615;28;20288;-82
2023/08/05 10:48:42;;;;;;;3.37;3.07;;;;;;;;;;5013303;28;20202;-82
2023/08/05 10:51:13;;;;;;;4.30;3.90;;;;;;;;;;5013051;28;20195;-82
2023/08/05 10:53:44;;;;;;;4.13;3.73;;;;;;;;;;5012712;28;20333;-82
2023/08/05 10:56:13;;;;;;;7.07;4.30;;;;;;;;;;5013234;28;20203;-83
2023/08/05 10:58:46;;;;;;;3.30;2.93;;;;;;;;;;5012936;28;20290;-82
2023/08/05 11:01:17;;;;;;;4.73;3.63;;;;;;;;;;5012709;28;20223;-82
2023/08/05 11:03:46;;;;;;;4.83;3.33;;;;;;;;;;5012671;28;20217;-83
2023/08/05 11:06:16;;;;;;;4.73;3.30;;;;;;;;;;5013084;28;20295;-82
2023/08/05 11:08:44;;;;;;;4.80;3.50;;;;;;;;;;5012911;28;20196;-84
2023/08/05 11:11:14;;;;;;;3.47;3.13;;;;;;;;;;5011733;28;20224;-84
2023/08/05 11:13:43;;;;;;;4.23;3.57;;;;;;;;;;5012404;28;20266;-83
2023/08/05 11:16:12;;;;;;;8.30;3.77;;;;;;;;;;5012370;28;20207;-85
2023/08/05 11:18:43;;;;;;;3.60;3.30;;;;;;;;;;5012079;28;20275;-84
2023/08/05 11:21:13;;;;;;;6.83;2.70;;;;;;;;;;5011961;28;20291;-85
2023/08/05 11:23:42;;;;;;;4.30;3.03;;;;;;;;;;5012460;28;20205;-85
2023/08/05 11:26:11;;;;;;;4.63;3.50;;;;;;;;;;5012283;28;20226;-85
2023/08/05 11:28:43;;;;;;;4.93;3.90;;;;;;;;;;5012012;28;20318;-85
2023/08/05 11:31:21;;;;;;;3.77;3.47;;;;;;;;;;5012282;28;20207;-85
2023/08/05 11:33:50;;;;;;;5.63;3.63;;;;;;;;;;5012379;28;20261;-84
2023/08/05 11:36:23;;;;;;;6.77;4.20;;;;;;;;;;5011950;28;20203;-84
2023/08/05 11:38:54;;;;;;;3.63;3.23;;;;;;;;;;5012196;28;20200;-84
2023/08/05 11:41:23;;;;;;;7.10;4.97;;;;;;;;;;5011797;28;20250;-84
2023/08/05 11:43:52;;;;;;;6.80;4.33;;;;;;;;;;5012143;28;20222;-85
2023/08/05 11:46:27;;;;;;;8.40;3.50;;;;;;;;;;5010898;28;20224;-85
2023/08/05 11:49:17;;;;;;;4.83;3.73;;;;;;;;;;5012420;28;20207;-85
2023/08/05 11:51:48;;;;;;;6.27;3.80;;;;;;;;;;5011711;28;20204;-84
2023/08/05 11:54:28;;;;;;;5.47;4.23;;;;;;;;;;5011427;28;20232;-85
2023/08/05 11:56:57;;;;;;;4.30;3.83;;;;;;;;;;5011933;28;20294;-85
2023/08/05 11:59:38;;;;;;;7.77;5.00;;;;;;;;;;5012043;28;20304;-84
2023/08/05 12:02:09;;;;;;;6.27;5.47;;;;;;;;;;5011898;28;20201;-85
2023/08/05 12:04:43;;;;;;;8.67;4.40;;;;;;;;;;5011236;28;20258;-85
2023/08/05 12:07:13;;;;;;;7.53;6.57;;;;;;;;;;5011731;28;20203;-84
2023/08/05 12:09:42;;;;;;;7.40;6.67;;;;;;;;;;5011419;28;20235;-84
2023/08/05 12:12:15;;;;;;;4.63;4.23;;;;;;;;;;5011746;28;20196;-84
2023/08/05 12:14:44;;;;;;;11.47;7.90;;;;;;;;;;5011585;28;20206;-84
2023/08/05 12:17:12;;;;;;;6.97;3.90;;;;;;;;;;5012086;28;20230;-84
2023/08/05 12:19:41;;;;;;;4.40;3.80;;;;;;;;;;5011595;28;20207;-84
2023/08/05 12:22:11;;;;;;;5.77;5.23;;;;;;;;;;5011339;28;20196;-84
2023/08/05 12:24:40;;;;;;;8.80;7.90;;;;;;;;;;5011785;28;20200;-85
2023/08/05 12:27:08;;;;;;;9.00;8.10;;;;;;;;;;5012314;28;20204;-85
2023/08/05 12:29:37;;;;;;;8.40;5.73;;;;;;;;;;5011218;28;20195;-84
2023/08/05 12:32:06;;;;;;;6.33;5.63;;;;;;;;;;5011956;28;20451;-85
2023/08/05 12:34:34;;;;;;;10.60;9.40;;;;;;;;;;5011404;28;20196;-84
2023/08/05 12:37:03;;;;;;;9.37;6.83;;;;;;;;;;5011714;28;20206;-84
2023/08/05 12:39:33;;;;;;;8.90;6.40;;;;;;;;;;5011457;28;20207;-84
2023/08/05 12:42:01;;;;;;;11.00;9.37;;;;;;;;;;5012065;28;20208;-84
2023/08/05 12:44:30;;;;;;;8.67;7.77;;;;;;;;;;5011465;28;20204;-84
2023/08/05 12:46:58;;;;;;;12.27;7.13;;;;;;;;;;5011356;28;20219;-83
2023/08/05 12:49:27;;;;;;;5.63;4.27;;;;;;;;;;5011825;28;20295;-82
2023/08/05 12:51:55;;;;;;;9.17;8.10;;;;;;;;;;5011581;28;20282;-84
2023/08/05 12:54:24;;;;;;;11.23;8.67;;;;;;;;;;5011498;28;20218;-84
2023/08/05 12:56:54;;;;;;;10.33;8.90;;;;;;;;;;5010786;28;20310;-84
2023/08/05 12:59:22;;;;;;;5.77;4.10;;;;;;;;;;5014875;28;20224;-84
2023/08/05 13:01:51;;;;;;;11.77;8.33;;;;;;;;;;5015379;28;20310;-85
2023/08/05 13:04:19;;;;;;;7.03;5.47;;;;;;;;;;5014334;28;20223;-85
2023/08/05 13:06:48;;;;;;;9.30;6.43;;;;;;;;;;5014615;28;20226;-84
2023/08/05 13:09:18;;;;;;;8.03;6.20;;;;;;;;;;5015121;28;20234;-84
2023/08/05 13:11:46;;;;;;;9.37;8.30;;;;;;;;;;5014790;28;20210;-84
2023/08/05 13:14:16;;;;;;;9.33;7.77;;;;;;;;;;5013896;28;20193;-84
2023/08/05 13:16:45;;;;;;;7.57;6.70;;;;;;;;;;5014849;28;20209;-84
2023/08/05 13:19:15;;;;;;;11.53;5.70;;;;;;;;;;5014513;28;20200;-84
2023/08/05 13:21:43;;;;;;;4.53;3.37;;;;;;;;;;5014383;28;20253;-84
2023/08/05 13:24:11;;;;;;;8.10;4.77;;;;;;;;;;5014166;28;20211;-84
2023/08/05 13:26:40;;;;;;;11.03;7.83;;;;;;;;;;5014449;28;20258;-85
2023/08/05 13:29:08;;;;;;;8.90;5.77;;;;;;;;;;5014631;28;20372;-84
2023/08/05 13:31:38;;;;;;;9.50;4.20;;;;;;;;;;5014139;28;20281;-84
2023/08/05 13:34:07;;;;;;;11.23;7.10;;;;;;;;;;5014358;28;20253;-84
2023/08/05 13:36:35;;;;;;;7.20;4.40;;;;;;;;;;5014911;28;20238;-84
2023/08/05 13:39:04;;;;;;;7.90;7.17;;;;;;;;;;5014412;28;20193;-84
2023/08/05 13:41:32;;;;;;;5.80;4.93;;;;;;;;;;5014161;28;20212;-84
2023/08/05 13:44:01;;;;;;;8.40;6.70;;;;;;;;;;5014749;28;20210;-84
2023/08/05 13:46:29;;;;;;;8.37;5.90;;;;;;;;;;5014661;28;20216;-84
2023/08/05 13:48:59;;;;;;;9.17;8.00;;;;;;;;;;5013840;28;20200;-84
2023/08/05 13:51:28;;;;;;;8.00;5.70;;;;;;;;;;5013949;28;20203;-84
2023/08/05 13:53:57;;;;;;;7.17;5.40;;;;;;;;;;5014123;28;20195;-84
2023/08/05 13:56:26;;;;;;;10.43;6.10;;;;;;;;;;5014125;28;20209;-84
2023/08/05 13:58:55;;;;;;;5.10;3.23;;;;;;;;;;5013513;28;20389;-84
2023/08/05 14:01:23;;;;;;;7.17;5.17;;;;;;;;;;5013787;28;20209;-84
2023/08/05 14:03:52;;;;;;;6.80;4.10;;;;;;;;;;5014168;28;20233;-84
2023/08/05 14:06:22;;;;;;;6.53;5.10;;;;;;;;;;5013667;28;20218;-84
2023/08/05 14:08:50;;;;;;;4.63;3.90;;;;;;;;;;5013564;28;20203;-84
2023/08/05 14:11:19;;;;;;;4.90;3.87;;;;;;;;;;5013158;28;20238;-84
2023/08/05 14:13:47;;;;;;;5.57;4.00;;;;;;;;;;5013870;28;20286;-85
2023/08/05 14:16:16;;;;;;;3.90;3.50;;;;;;;;;;5013181;28;20218;-84
2023/08/05 14:18:44;;;;;;;4.80;3.13;;;;;;;;;;5013531;28;20274;-84
2023/08/05 14:21:12;;;;;;;5.40;3.00;;;;;;;;;;5013669;28;20208;-84
2023/08/05 14:23:42;;;;;;;6.03;3.60;;;;;;;;;;5013442;28;20209;-84
2023/08/05 14:26:11;;;;;;;5.10;2.53;;;;;;;;;;5012938;28;20226;-85
2023/08/05 14:28:39;;;;;;;4.40;3.37;;;;;;;;;;5013615;28;20196;-84
2023/08/05 14:31:08;;;;;;;2.93;2.23;;;;;;;;;;5013335;28;20240;-84
2023/08/05 14:33:36;;;;;;;5.00;3.83;;;;;;;;;;5012842;28;20243;-84
2023/08/05 14:36:10;;;;;;;8.03;3.47;;;;;;;;;;5013133;28;20207;-84
2023/08/05 14:38:38;;;;;;;3.63;2.50;;;;;;;;;;5013570;28;20218;-84
2023/08/05 14:41:08;;;;;;;4.03;3.10;;;;;;;;;;5013359;28;20200;-84
2023/08/05 14:43:37;;;;;;;3.57;3.27;;;;;;;;;;5013106;28;20298;-84
2023/08/05 14:46:07;;;;;;;4.40;3.00;;;;;;;;;;5012630;28;20226;-84
2023/08/05 14:48:36;;;;;;;3.77;3.03;;;;;;;;;;5013355;28;20211;-84
2023/08/05 14:51:04;;;;;;;3.93;2.63;;;;;;;;;;5012382;28;20246;-85
2023/08/05 14:53:33;;;;;;;4.20;2.17;;;;;;;;;;5013279;28;20437;-84
2023/08/05 14:56:02;;;;;;;5.97;3.57;;;;;;;;;;5012664;28;20200;-84